createdAt,value
2017-05-08T00:00:41.974Z,79.30
2017-05-08T00:01:42.583Z,79.49
2017-05-08T00:02:43.191Z,79.58
2017-05-08T00:03:43.828Z,80.06
2017-05-08T00:04:44.471Z,79.68
2017-05-08T00:05:45.078Z,79.58
2017-05-08T00:06:45.685Z,79.68
2017-05-08T00:07:46.299Z,79.68
2017-05-08T00:08:46.906Z,79.58
2017-05-08T00:09:47.550Z,79.68
2017-05-08T00:10:48.154Z,80.06
2017-05-08T00:11:48.762Z,79.77
2017-05-08T00:12:49.370Z,79.87
2017-05-08T00:13:49.982Z,79.49
2017-05-08T00:14:50.587Z,79.96
2017-05-08T00:15:51.228Z,80.25
2017-05-08T00:16:51.843Z,80.15
2017-05-08T00:17:52.445Z,80.44
2017-05-08T00:18:53.060Z,80.06
2017-05-08T00:19:53.667Z,80.44
2017-05-08T00:20:54.275Z,80.25
2017-05-08T00:21:54.883Z,80.25
2017-05-08T00:22:55.489Z,80.25
2017-05-08T00:23:56.099Z,80.34
2017-05-08T00:24:56.739Z,80.06
2017-05-08T00:25:57.346Z,80.15
2017-05-08T00:26:57.960Z,79.87
2017-05-08T00:27:58.565Z,80.34
2017-05-08T00:28:59.174Z,80.44
2017-05-08T00:29:59.781Z,80.34
2017-05-08T00:31:00.388Z,79.77
2017-05-08T00:32:01.002Z,79.77
2017-05-08T00:33:01.642Z,79.77
2017-05-08T00:34:02.251Z,80.06
2017-05-08T00:35:02.861Z,79.77
2017-05-08T00:36:03.470Z,79.96
2017-05-08T00:37:04.078Z,79.87
2017-05-08T00:38:04.685Z,79.77
2017-05-08T00:39:05.299Z,80.06
2017-05-08T00:40:05.905Z,79.77
2017-05-08T00:41:06.514Z,79.96
2017-05-08T00:42:07.118Z,79.96
2017-05-08T00:43:07.726Z,79.87
2017-05-08T00:44:08.365Z,79.77
2017-05-08T00:45:08.973Z,79.87
2017-05-08T00:46:09.580Z,79.30
2017-05-08T00:47:10.189Z,79.39
2017-05-08T00:48:10.795Z,79.68
2017-05-08T00:49:11.403Z,79.36
2017-05-08T00:50:12.011Z,79.74
2017-05-08T00:51:12.620Z,79.93
2017-05-08T00:52:13.235Z,79.83
2017-05-08T00:53:13.845Z,80.02
2017-05-08T00:54:14.456Z,80.30
2017-05-08T00:55:15.067Z,80.30
2017-05-08T00:56:15.677Z,80.40
2017-05-08T00:57:16.318Z,80.96
2017-05-08T00:58:16.924Z,80.30
2017-05-08T00:59:17.531Z,80.02
2017-05-08T01:00:18.143Z,80.30
2017-05-08T01:01:18.749Z,80.58
2017-05-08T01:02:19.390Z,80.49
2017-05-08T01:03:19.999Z,80.40
2017-05-08T01:04:20.612Z,80.40
2017-05-08T01:05:21.219Z,80.58
2017-05-08T01:06:21.824Z,80.49
2017-05-08T01:07:22.481Z,80.30
2017-05-08T01:08:23.090Z,80.40
2017-05-08T01:09:23.697Z,80.40
2017-05-08T01:10:24.336Z,80.30
2017-05-08T01:11:24.945Z,80.30
2017-05-08T01:12:25.602Z,80.30
2017-05-08T01:13:26.208Z,80.40
2017-05-08T01:14:26.817Z,80.58
2017-05-08T01:15:27.431Z,80.49
2017-05-08T01:16:28.037Z,80.40
2017-05-08T01:17:28.694Z,80.49
2017-05-08T01:18:29.302Z,80.77
2017-05-08T01:19:29.909Z,80.87
2017-05-08T01:20:30.522Z,80.77
2017-05-08T01:21:31.127Z,80.87
2017-05-08T01:22:31.783Z,80.58
2017-05-08T01:23:32.392Z,80.77
2017-05-08T01:24:33.000Z,80.77
2017-05-08T01:25:33.611Z,80.87
2017-05-08T01:26:34.220Z,80.40
2017-05-08T01:27:34.876Z,80.87
2017-05-08T01:28:35.482Z,80.58
2017-05-08T01:29:36.095Z,80.49
2017-05-08T01:30:36.702Z,80.30
2017-05-08T01:31:37.310Z,80.30
2017-05-08T01:32:37.967Z,80.40
2017-05-08T01:33:38.615Z,80.40
2017-05-08T01:34:39.219Z,80.40
2017-05-08T01:35:39.860Z,80.87
2017-05-08T01:36:40.466Z,80.49
2017-05-08T01:37:41.164Z,80.30
2017-05-08T01:38:41.770Z,80.96
2017-05-08T01:39:42.415Z,80.77
2017-05-08T01:40:43.020Z,80.96
2017-05-08T01:41:43.628Z,81.06
2017-05-08T01:42:44.290Z,80.87
2017-05-08T01:43:44.932Z,80.68
2017-05-08T01:44:45.545Z,81.12
2017-05-08T01:45:46.153Z,81.02
2017-05-08T01:46:46.765Z,81.12
2017-05-08T01:47:47.419Z,81.02
2017-05-08T01:48:48.027Z,81.02
2017-05-08T01:49:48.637Z,80.96
2017-05-08T01:50:49.242Z,80.74
2017-05-08T01:51:49.850Z,81.49
2017-05-08T01:52:50.538Z,81.49
2017-05-08T01:53:51.151Z,81.49
2017-05-08T01:54:51.755Z,81.40
2017-05-08T01:55:52.395Z,81.21
2017-05-08T01:56:53.008Z,81.59
2017-05-08T01:57:53.666Z,81.96
2017-05-08T01:58:54.277Z,81.68
2017-05-08T01:59:54.882Z,81.59
2017-05-08T02:00:55.490Z,81.77
2017-05-08T02:01:56.102Z,81.59
2017-05-08T02:02:56.761Z,81.68
2017-05-08T02:03:57.371Z,81.87
2017-05-08T02:04:57.982Z,81.68
2017-05-08T02:05:58.623Z,81.77
2017-05-08T02:06:59.229Z,81.77
2017-05-08T02:07:59.891Z,82.15
2017-05-08T02:09:00.500Z,81.87
2017-05-08T02:10:01.142Z,82.25
2017-05-08T02:11:01.748Z,82.34
2017-05-08T02:12:02.354Z,82.34
2017-05-08T02:13:03.010Z,81.68
2017-05-08T02:14:03.619Z,81.68
2017-05-08T02:15:04.228Z,81.68
2017-05-08T02:16:04.841Z,82.34
2017-05-08T02:17:05.449Z,81.87
2017-05-08T02:18:06.103Z,81.68
2017-05-08T02:19:06.709Z,81.77
2017-05-08T02:20:07.317Z,81.68
2017-05-08T02:21:07.923Z,82.06
2017-05-08T02:22:08.536Z,81.68
2017-05-08T02:23:09.192Z,82.06
2017-05-08T02:24:09.839Z,81.96
2017-05-08T02:25:10.444Z,81.96
2017-05-08T02:26:11.051Z,82.34
2017-05-08T02:27:11.658Z,82.53
2017-05-08T02:28:12.267Z,82.44
2017-05-08T02:29:12.872Z,82.63
2017-05-08T02:30:13.480Z,82.53
2017-05-08T02:31:14.087Z,82.53
2017-05-08T02:32:14.694Z,82.63
2017-05-08T02:33:15.357Z,82.63
2017-05-08T02:34:15.998Z,82.25
2017-05-08T02:35:16.610Z,82.34
2017-05-08T02:36:17.212Z,82.63
2017-05-08T02:37:17.819Z,82.63
2017-05-08T02:38:18.425Z,82.44
2017-05-08T02:39:19.038Z,82.25
2017-05-08T02:40:19.642Z,82.34
2017-05-08T02:41:20.249Z,82.72
2017-05-08T02:42:20.855Z,82.15
2017-05-08T02:43:21.461Z,82.34
2017-05-08T02:44:22.068Z,82.44
2017-05-08T02:45:22.677Z,82.44
2017-05-08T02:46:23.285Z,82.44
2017-05-08T02:47:23.892Z,82.44
2017-05-08T02:48:24.499Z,82.15
2017-05-08T02:49:25.105Z,82.44
2017-05-08T02:50:25.712Z,82.44
2017-05-08T02:51:26.319Z,82.34
2017-05-08T02:52:26.929Z,82.34
2017-05-08T02:53:27.541Z,82.63
2017-05-08T02:54:28.144Z,82.25
2017-05-08T02:55:28.751Z,82.63
2017-05-08T02:56:29.357Z,82.34
2017-05-08T02:57:29.965Z,82.34
2017-05-08T02:58:30.575Z,82.34
2017-05-08T02:59:31.181Z,82.53
2017-05-08T03:00:31.794Z,82.63
2017-05-08T03:01:32.406Z,82.67
2017-05-08T03:02:33.015Z,82.48
2017-05-08T03:03:33.624Z,82.29
2017-05-08T03:04:34.235Z,82.29
2017-05-08T03:05:34.840Z,81.82
2017-05-08T03:06:35.448Z,82.10
2017-05-08T03:07:36.062Z,82.34
2017-05-08T03:08:36.722Z,82.57
2017-05-08T03:09:37.332Z,82.53
2017-05-08T03:10:37.936Z,82.48
2017-05-08T03:11:38.543Z,82.25
2017-05-08T03:12:39.158Z,82.06
2017-05-08T03:13:39.763Z,82.29
2017-05-08T03:14:40.404Z,81.72
2017-05-08T03:15:41.012Z,81.92
2017-05-08T03:16:41.620Z,81.82
2017-05-08T03:17:42.227Z,82.01
2017-05-08T03:18:42.833Z,82.06
2017-05-08T03:19:43.447Z,82.01
2017-05-08T03:20:44.050Z,82.06
2017-05-08T03:21:44.657Z,82.01
2017-05-08T03:22:45.263Z,81.77
2017-05-08T03:23:45.903Z,81.87
2017-05-08T03:24:46.510Z,81.87
2017-05-08T03:25:47.118Z,82.06
2017-05-08T03:26:47.725Z,82.63
2017-05-08T03:27:48.334Z,82.63
2017-05-08T03:28:48.945Z,82.53
2017-05-08T03:29:49.586Z,82.63
2017-05-08T03:30:50.194Z,82.82
2017-05-08T03:31:50.802Z,82.91
2017-05-08T03:32:51.412Z,82.91
2017-05-08T03:33:52.018Z,82.72
2017-05-08T03:34:52.625Z,82.72
2017-05-08T03:35:53.234Z,83.01
2017-05-08T03:36:53.854Z,83.01
2017-05-08T03:37:54.448Z,83.10
2017-05-08T03:38:55.054Z,83.01
2017-05-08T03:39:55.667Z,82.91
2017-05-08T03:40:56.276Z,82.91
2017-05-08T03:41:56.880Z,83.01
2017-05-08T03:42:57.489Z,83.20
2017-05-08T03:43:58.099Z,82.91
2017-05-08T03:44:58.705Z,83.01
2017-05-08T03:45:59.317Z,83.48
2017-05-08T03:46:59.927Z,83.48
2017-05-08T03:48:00.537Z,82.91
2017-05-08T03:49:01.141Z,83.01
2017-05-08T03:50:01.747Z,83.20
2017-05-08T03:51:02.360Z,83.10
2017-05-08T03:52:02.965Z,83.39
2017-05-08T03:53:03.573Z,83.39
2017-05-08T03:54:04.178Z,83.10
2017-05-08T03:55:04.785Z,83.29
2017-05-08T03:56:05.393Z,83.48
2017-05-08T03:57:06.001Z,83.29
2017-05-08T03:58:06.607Z,83.10
2017-05-08T03:59:07.264Z,83.29
2017-05-08T04:00:07.907Z,83.58
2017-05-08T04:01:08.514Z,83.29
2017-05-08T04:02:09.122Z,83.48
2017-05-08T04:03:09.735Z,83.01
2017-05-08T04:04:10.339Z,83.39
2017-05-08T04:05:10.946Z,83.39
2017-05-08T04:06:11.558Z,83.29
2017-05-08T04:07:12.164Z,83.48
2017-05-08T04:08:12.770Z,83.29
2017-05-08T04:09:13.383Z,83.01
2017-05-08T04:10:13.986Z,83.01
2017-05-08T04:11:14.592Z,83.29
2017-05-08T04:12:15.205Z,83.48
2017-05-08T04:13:15.811Z,83.58
2017-05-08T04:14:16.424Z,83.58
2017-05-08T04:15:17.028Z,83.29
2017-05-08T04:16:17.641Z,83.58
2017-05-08T04:17:18.245Z,83.48
2017-05-08T04:18:18.857Z,83.39
2017-05-08T04:19:19.461Z,83.20
2017-05-08T04:20:20.069Z,83.20
2017-05-08T04:21:20.674Z,83.20
2017-05-08T04:22:21.281Z,83.29
2017-05-08T04:23:21.889Z,83.39
2017-05-08T04:24:22.554Z,83.39
2017-05-08T04:25:23.193Z,83.67
2017-05-08T04:26:23.834Z,83.67
2017-05-08T04:27:24.439Z,83.39
2017-05-08T04:28:25.051Z,83.48
2017-05-08T04:29:25.661Z,83.67
2017-05-08T04:30:26.271Z,83.76
2017-05-08T04:31:26.880Z,83.67
2017-05-08T04:32:27.485Z,83.29
2017-05-08T04:33:28.093Z,83.29
2017-05-08T04:34:28.702Z,83.39
2017-05-08T04:35:29.312Z,83.76
2017-05-08T04:36:29.922Z,83.95
2017-05-08T04:37:30.528Z,83.48
2017-05-08T04:38:31.137Z,83.58
2017-05-08T04:39:31.743Z,84.14
2017-05-08T04:40:32.355Z,84.23
2017-05-08T04:41:32.994Z,84.05
2017-05-08T04:42:33.601Z,84.23
2017-05-08T04:43:34.208Z,84.14
2017-05-08T04:44:34.866Z,83.95
2017-05-08T04:45:35.474Z,84.05
2017-05-08T04:46:36.086Z,83.86
2017-05-08T04:47:36.724Z,83.95
2017-05-08T04:48:37.365Z,83.86
2017-05-08T04:49:37.978Z,83.95
2017-05-08T04:50:38.583Z,83.95
2017-05-08T04:51:39.197Z,83.86
2017-05-08T04:52:39.800Z,83.76
2017-05-08T04:53:40.409Z,83.86
2017-05-08T04:54:41.017Z,83.86
2017-05-08T04:55:41.624Z,84.05
2017-05-08T04:56:42.232Z,84.05
2017-05-08T04:57:42.843Z,83.95
2017-05-08T04:58:43.451Z,84.05
2017-05-08T04:59:44.060Z,83.95
2017-05-08T05:00:44.669Z,83.86
2017-05-08T05:01:45.278Z,83.86
2017-05-08T05:02:45.885Z,84.05
2017-05-08T05:03:46.498Z,83.95
2017-05-08T05:04:47.111Z,83.95
2017-05-08T05:05:47.718Z,83.95
2017-05-08T05:06:48.324Z,84.23
2017-05-08T05:07:48.932Z,83.86
2017-05-08T05:08:49.541Z,83.48
2017-05-08T05:09:50.151Z,84.05
2017-05-08T05:10:50.757Z,84.14
2017-05-08T05:11:51.398Z,83.67
2017-05-08T05:12:52.005Z,84.05
2017-05-08T05:13:52.619Z,83.48
2017-05-08T05:14:53.263Z,83.39
2017-05-08T05:15:53.873Z,83.39
2017-05-08T05:16:54.480Z,83.20
2017-05-08T05:17:55.121Z,83.20
2017-05-08T05:18:55.729Z,83.58
2017-05-08T05:19:56.339Z,83.39
2017-05-08T05:20:56.948Z,83.39
2017-05-08T05:21:57.554Z,83.67
2017-05-08T05:22:58.164Z,83.29
2017-05-08T05:23:58.781Z,83.20
2017-05-08T05:24:59.389Z,83.48
2017-05-08T05:25:59.993Z,83.58
2017-05-08T05:27:00.610Z,83.10
2017-05-08T05:28:01.215Z,83.20
2017-05-08T05:29:01.822Z,83.39
2017-05-08T05:30:02.465Z,83.39
2017-05-08T05:31:03.107Z,83.20
2017-05-08T05:32:03.716Z,83.20
2017-05-08T05:33:04.363Z,83.29
2017-05-08T05:34:04.969Z,83.29
2017-05-08T05:35:05.627Z,83.39
2017-05-08T05:36:06.236Z,83.39
2017-05-08T05:37:06.849Z,83.20
2017-05-08T05:38:07.455Z,83.39
2017-05-08T05:39:08.066Z,83.39
2017-05-08T05:40:08.674Z,83.10
2017-05-08T05:41:09.282Z,83.01
2017-05-08T05:42:09.930Z,83.29
2017-05-08T05:43:10.541Z,83.29
2017-05-08T05:44:11.147Z,83.29
2017-05-08T05:45:11.753Z,83.29
2017-05-08T05:46:12.362Z,83.29
2017-05-08T05:47:12.978Z,83.48
2017-05-08T05:48:13.583Z,83.48
2017-05-08T05:49:14.194Z,83.20
2017-05-08T05:50:14.800Z,83.29
2017-05-08T05:51:15.412Z,83.58
2017-05-08T05:52:16.018Z,83.39
2017-05-08T05:53:16.625Z,83.20
2017-05-08T05:54:17.240Z,83.20
2017-05-08T05:55:17.894Z,83.20
2017-05-08T05:56:18.503Z,83.39
2017-05-08T05:57:19.114Z,83.39
2017-05-08T05:58:19.722Z,83.20
2017-05-08T05:59:20.331Z,83.20
2017-05-08T06:00:20.940Z,83.20
2017-05-08T06:01:21.548Z,83.58
2017-05-08T06:02:22.155Z,83.39
2017-05-08T06:03:22.764Z,83.20
2017-05-08T06:04:23.373Z,83.10
2017-05-08T06:05:23.984Z,83.48
2017-05-08T06:06:24.632Z,83.29
2017-05-08T06:07:25.274Z,83.29
2017-05-08T06:08:25.883Z,83.39
2017-05-08T06:09:26.491Z,83.29
2017-05-08T06:10:27.099Z,83.10
2017-05-08T06:11:27.708Z,83.20
2017-05-08T06:12:28.317Z,83.48
2017-05-08T06:13:28.929Z,83.20
2017-05-08T06:14:29.537Z,83.48
2017-05-08T06:15:30.208Z,83.39
2017-05-08T06:16:30.808Z,83.29
2017-05-08T06:17:31.419Z,83.29
2017-05-08T06:18:32.026Z,83.43
2017-05-08T06:19:32.633Z,83.20
2017-05-08T06:20:33.244Z,83.48
2017-05-08T06:21:33.850Z,83.43
2017-05-08T06:22:34.459Z,83.01
2017-05-08T06:23:35.075Z,83.24
2017-05-08T06:24:35.688Z,83.10
2017-05-08T06:25:36.376Z,83.58
2017-05-08T06:26:36.986Z,83.39
2017-05-08T06:27:37.594Z,83.67
2017-05-08T06:28:38.204Z,83.01
2017-05-08T06:29:38.817Z,83.48
2017-05-08T06:30:39.427Z,83.29
2017-05-08T06:31:40.036Z,83.01
2017-05-08T06:32:40.649Z,83.01
2017-05-08T06:33:41.259Z,83.71
2017-05-08T06:34:41.869Z,83.05
2017-05-08T06:35:42.531Z,83.29
2017-05-08T06:36:43.140Z,83.33
2017-05-08T06:37:43.758Z,83.39
2017-05-08T06:38:44.370Z,83.05
2017-05-08T06:39:44.977Z,83.52
2017-05-08T06:40:45.640Z,83.43
2017-05-08T06:41:46.251Z,83.24
2017-05-08T06:42:46.863Z,83.33
2017-05-08T06:43:47.474Z,83.43
2017-05-08T06:44:48.084Z,83.14
2017-05-08T06:45:48.699Z,83.14
2017-05-08T06:46:49.339Z,83.33
2017-05-08T06:47:49.951Z,83.24
2017-05-08T06:48:50.567Z,83.24
2017-05-08T06:49:51.175Z,83.33
2017-05-08T06:50:51.792Z,83.14
2017-05-08T06:51:52.400Z,83.33
2017-05-08T06:52:53.017Z,83.43
2017-05-08T06:53:53.623Z,83.24
2017-05-08T06:54:54.235Z,83.71
2017-05-08T06:55:54.851Z,83.43
2017-05-08T06:56:55.458Z,83.33
2017-05-08T06:57:56.077Z,83.52
2017-05-08T06:58:56.720Z,83.81
2017-05-08T06:59:57.331Z,83.43
2017-05-08T07:00:57.940Z,83.43
2017-05-08T07:01:58.556Z,83.37
2017-05-08T07:02:59.169Z,83.33
2017-05-08T07:03:59.779Z,83.28
2017-05-08T07:05:00.391Z,83.28
2017-05-08T07:06:01.000Z,83.00
2017-05-08T07:07:01.612Z,83.56
2017-05-08T07:08:02.224Z,83.37
2017-05-08T07:09:02.833Z,83.28
2017-05-08T07:10:03.443Z,83.37
2017-05-08T07:11:04.105Z,83.18
2017-05-08T07:12:04.715Z,83.18
2017-05-08T07:13:05.364Z,83.09
2017-05-08T07:14:06.012Z,83.28
2017-05-08T07:15:06.621Z,83.56
2017-05-08T07:16:07.263Z,83.56
2017-05-08T07:17:07.879Z,83.37
2017-05-08T07:18:08.497Z,83.56
2017-05-08T07:19:09.103Z,83.37
2017-05-08T07:20:09.715Z,83.09
2017-05-08T07:21:10.325Z,83.56
2017-05-08T07:22:10.943Z,83.37
2017-05-08T07:23:11.549Z,83.28
2017-05-08T07:24:12.160Z,84.13
2017-05-08T07:25:12.771Z,83.94
2017-05-08T07:26:13.389Z,84.13
2017-05-08T07:27:13.998Z,84.13
2017-05-08T07:28:14.610Z,83.94
2017-05-08T07:29:15.220Z,84.04
2017-05-08T07:30:15.861Z,84.13
2017-05-08T07:31:16.472Z,83.85
2017-05-08T07:32:17.084Z,83.94
2017-05-08T07:33:17.701Z,84.23
2017-05-08T07:34:18.310Z,84.32
2017-05-08T07:35:18.959Z,84.61
2017-05-08T07:36:19.566Z,84.23
2017-05-08T07:37:20.177Z,84.47
2017-05-08T07:38:20.788Z,84.13
2017-05-08T07:39:21.397Z,85.27
2017-05-08T07:40:22.015Z,85.65
2017-05-08T07:41:22.626Z,85.46
2017-05-08T07:42:23.271Z,85.36
2017-05-08T07:43:23.880Z,85.74
2017-05-08T07:44:24.497Z,85.65
2017-05-08T07:45:25.102Z,85.74
2017-05-08T07:46:25.712Z,85.93
2017-05-08T07:47:26.322Z,85.46
2017-05-08T07:48:26.945Z,85.42
2017-05-08T07:49:27.549Z,86.36
2017-05-08T07:50:28.158Z,86.55
2017-05-08T07:51:28.770Z,86.36
2017-05-08T07:52:29.380Z,86.55
2017-05-08T07:53:29.994Z,86.27
2017-05-08T07:54:30.605Z,86.41
2017-05-08T07:55:31.216Z,86.60
2017-05-08T07:56:31.826Z,86.79
2017-05-08T07:57:32.437Z,86.69
2017-05-08T07:58:33.047Z,86.50
2017-05-08T07:59:33.658Z,86.60
2017-05-08T08:00:34.308Z,86.22
2017-05-08T08:01:34.921Z,86.79
2017-05-08T08:02:35.531Z,86.31
2017-05-08T08:03:36.175Z,86.31
2017-05-08T08:04:36.785Z,86.16
2017-05-08T08:05:37.403Z,86.55
2017-05-08T08:06:38.010Z,86.35
2017-05-08T08:07:38.621Z,86.55
2017-05-08T08:08:39.234Z,86.45
2017-05-08T08:09:39.851Z,86.49
2017-05-08T08:10:40.460Z,85.93
2017-05-08T08:11:41.071Z,85.36
2017-05-08T08:12:41.682Z,86.59
2017-05-08T08:13:42.294Z,85.64
2017-05-08T08:14:42.906Z,85.45
2017-05-08T08:15:43.520Z,85.83
2017-05-08T08:16:44.185Z,85.36
2017-05-08T08:17:44.793Z,85.36
2017-05-08T08:18:45.403Z,85.64
2017-05-08T08:19:46.019Z,85.64
2017-05-08T08:20:46.631Z,86.11
2017-05-08T08:21:47.298Z,85.68
2017-05-08T08:22:47.907Z,85.87
2017-05-08T08:23:48.519Z,84.83
2017-05-08T08:24:49.135Z,85.21
2017-05-08T08:25:49.753Z,84.83
2017-05-08T08:26:50.412Z,84.74
2017-05-08T08:27:51.025Z,84.45
2017-05-08T08:28:51.642Z,84.55
2017-05-08T08:29:52.252Z,84.12
2017-05-08T08:30:52.862Z,83.36
2017-05-08T08:31:53.479Z,83.46
2017-05-08T08:32:54.088Z,83.46
2017-05-08T08:33:54.700Z,84.12
2017-05-08T08:34:55.313Z,84.50
2017-05-08T08:35:55.927Z,84.59
2017-05-08T08:36:56.543Z,85.07
2017-05-08T08:37:57.153Z,85.55
2017-05-08T08:38:57.770Z,85.26
2017-05-08T08:39:58.379Z,85.17
2017-05-08T08:40:58.991Z,84.88
2017-05-08T08:41:59.607Z,85.68
2017-05-08T08:43:00.217Z,85.87
2017-05-08T08:44:00.830Z,85.30
2017-05-08T08:45:01.441Z,85.40
2017-05-08T08:46:02.059Z,85.59
2017-05-08T08:47:02.670Z,84.17
2017-05-08T08:48:03.283Z,84.07
2017-05-08T08:49:03.900Z,84.55
2017-05-08T08:50:04.512Z,85.40
2017-05-08T08:51:05.123Z,86.07
2017-05-08T08:52:05.734Z,85.40
2017-05-08T08:53:06.349Z,85.02
2017-05-08T08:54:06.961Z,83.50
2017-05-08T08:55:07.573Z,83.69
2017-05-08T08:56:08.185Z,84.69
2017-05-08T08:57:08.797Z,85.11
2017-05-08T08:58:09.409Z,86.07
2017-05-08T08:59:10.026Z,85.59
2017-05-08T09:00:10.638Z,85.68
2017-05-08T09:01:11.249Z,86.16
2017-05-08T09:02:11.861Z,85.16
2017-05-08T09:03:12.506Z,85.11
2017-05-08T09:04:13.120Z,84.49
2017-05-08T09:05:13.737Z,84.36
2017-05-08T09:06:14.348Z,84.17
2017-05-08T09:07:15.010Z,84.59
2017-05-08T09:08:15.624Z,84.78
2017-05-08T09:09:16.237Z,84.78
2017-05-08T09:10:16.848Z,85.06
2017-05-08T09:11:17.460Z,84.68
2017-05-08T09:12:18.075Z,85.25
2017-05-08T09:13:18.689Z,84.87
2017-05-08T09:14:19.301Z,84.49
2017-05-08T09:15:19.915Z,84.49
2017-05-08T09:16:20.564Z,83.54
2017-05-08T09:17:21.226Z,83.54
2017-05-08T09:18:21.837Z,83.45
2017-05-08T09:19:22.458Z,84.01
2017-05-08T09:20:23.073Z,84.49
2017-05-08T09:21:23.684Z,83.54
2017-05-08T09:22:24.348Z,83.07
2017-05-08T09:23:24.962Z,82.69
2017-05-08T09:24:25.583Z,83.07
2017-05-08T09:25:26.199Z,83.16
2017-05-08T09:26:26.815Z,82.03
2017-05-08T09:27:27.474Z,82.17
2017-05-08T09:28:28.090Z,84.17
2017-05-08T09:29:28.707Z,84.68
2017-05-08T09:30:29.318Z,85.06
2017-05-08T09:31:29.930Z,84.49
2017-05-08T09:32:30.575Z,83.83
2017-05-08T09:33:31.187Z,83.54
2017-05-08T09:34:31.798Z,83.07
2017-05-08T09:35:32.415Z,82.88
2017-05-08T09:36:33.028Z,83.26
2017-05-08T09:37:33.731Z,83.64
2017-05-08T09:38:34.341Z,83.26
2017-05-08T09:39:34.955Z,83.26
2017-05-08T09:40:35.573Z,83.07
2017-05-08T09:41:36.184Z,82.97
2017-05-08T09:42:36.831Z,82.88
2017-05-08T09:43:37.444Z,82.59
2017-05-08T09:44:38.056Z,82.21
2017-05-08T09:45:38.680Z,81.93
2017-05-08T09:46:39.287Z,82.03
2017-05-08T09:47:39.906Z,81.93
2017-05-08T09:48:40.517Z,81.93
2017-05-08T09:49:41.130Z,82.69
2017-05-08T09:50:41.743Z,82.97
2017-05-08T09:51:42.361Z,83.07
2017-05-08T09:52:42.972Z,82.50
2017-05-08T09:53:43.585Z,82.88
2017-05-08T09:54:44.201Z,82.03
2017-05-08T09:55:44.814Z,82.21
2017-05-08T09:56:45.427Z,82.21
2017-05-08T09:57:46.046Z,82.59
2017-05-08T09:58:46.656Z,82.97
2017-05-08T09:59:47.275Z,82.78
2017-05-08T10:00:47.886Z,82.21
2017-05-08T10:01:48.503Z,82.97
2017-05-08T10:02:49.114Z,83.36
2017-05-08T10:03:49.761Z,83.45
2017-05-08T10:04:50.374Z,82.59
2017-05-08T10:05:50.993Z,82.21
2017-05-08T10:06:51.638Z,82.21
2017-05-08T10:07:52.263Z,82.97
2017-05-08T10:08:52.871Z,82.50
2017-05-08T10:09:53.485Z,82.40
2017-05-08T10:10:54.099Z,82.12
2017-05-08T10:11:54.711Z,82.21
2017-05-08T10:12:55.322Z,82.31
2017-05-08T10:13:55.937Z,81.65
2017-05-08T10:14:56.550Z,81.93
2017-05-08T10:15:57.163Z,82.12
2017-05-08T10:16:57.777Z,81.65
2017-05-08T10:17:58.388Z,82.21
2017-05-08T10:18:59.002Z,82.21
2017-05-08T10:19:59.615Z,82.31
2017-05-08T10:21:00.263Z,82.21
2017-05-08T10:22:00.877Z,82.07
2017-05-08T10:23:01.541Z,82.07
2017-05-08T10:24:02.154Z,81.87
2017-05-08T10:25:02.804Z,81.59
2017-05-08T10:26:03.414Z,80.74
2017-05-08T10:27:04.027Z,80.64
2017-05-08T10:28:04.639Z,81.02
2017-05-08T10:29:05.286Z,80.35
2017-05-08T10:30:05.909Z,79.31
2017-05-08T10:31:06.555Z,79.60
2017-05-08T10:32:07.169Z,79.79
2017-05-08T10:33:07.830Z,80.55
2017-05-08T10:34:08.450Z,80.64
2017-05-08T10:35:09.067Z,80.55
2017-05-08T10:36:09.685Z,80.74
2017-05-08T10:37:10.294Z,80.07
2017-05-08T10:38:10.914Z,79.50
2017-05-08T10:39:11.529Z,79.69
2017-05-08T10:40:12.139Z,79.46
2017-05-08T10:41:12.760Z,79.55
2017-05-08T10:42:13.370Z,79.74
2017-05-08T10:43:13.984Z,79.94
2017-05-08T10:44:14.597Z,79.60
2017-05-08T10:45:15.210Z,79.88
2017-05-08T10:46:15.824Z,79.60
2017-05-08T10:47:16.446Z,79.31
2017-05-08T10:48:17.092Z,78.64
2017-05-08T10:49:17.705Z,78.83
2017-05-08T10:50:18.319Z,78.74
2017-05-08T10:51:18.931Z,79.03
2017-05-08T10:52:19.544Z,78.17
2017-05-08T10:53:20.166Z,77.98
2017-05-08T10:54:20.777Z,78.83
2017-05-08T10:55:21.394Z,78.64
2017-05-08T10:56:22.005Z,78.83
2017-05-08T10:57:22.625Z,77.79
2017-05-08T10:58:23.235Z,78.08
2017-05-08T10:59:23.855Z,78.08
2017-05-08T11:00:24.471Z,77.60
2017-05-08T11:01:25.117Z,78.17
2017-05-08T11:02:25.737Z,78.17
2017-05-08T11:03:26.347Z,78.50
2017-05-08T11:04:26.964Z,77.36
2017-05-08T11:05:27.576Z,78.21
2017-05-08T11:06:28.191Z,77.55
2017-05-08T11:07:28.809Z,77.26
2017-05-08T11:08:29.422Z,77.26
2017-05-08T11:09:30.040Z,77.20
2017-05-08T11:10:30.654Z,77.49
2017-05-08T11:11:31.270Z,76.44
2017-05-08T11:12:31.884Z,76.44
2017-05-08T11:13:32.530Z,76.82
2017-05-08T11:14:33.146Z,76.48
2017-05-08T11:15:33.761Z,76.67
2017-05-08T11:16:34.374Z,75.72
2017-05-08T11:17:34.990Z,75.05
2017-05-08T11:18:35.605Z,75.15
2017-05-08T11:19:36.221Z,76.14
2017-05-08T11:20:36.840Z,75.85
2017-05-08T11:21:37.450Z,75.95
2017-05-08T11:22:38.066Z,74.65
2017-05-08T11:23:38.684Z,73.80
2017-05-08T11:24:39.304Z,74.08
2017-05-08T11:25:39.919Z,73.13
2017-05-08T11:26:40.541Z,72.75
2017-05-08T11:27:41.155Z,72.90
2017-05-08T11:28:41.822Z,72.62
2017-05-08T11:29:42.438Z,72.52
2017-05-08T11:30:43.085Z,71.67
2017-05-08T11:31:43.703Z,72.71
2017-05-08T11:32:44.323Z,71.38
2017-05-08T11:33:44.937Z,71.47
2017-05-08T11:34:45.591Z,71.67
2017-05-08T11:35:46.205Z,73.38
2017-05-08T11:36:46.821Z,73.57
2017-05-08T11:37:47.433Z,73.28
2017-05-08T11:38:48.101Z,72.52
2017-05-08T11:39:48.721Z,72.42
2017-05-08T11:40:49.346Z,71.95
2017-05-08T11:41:49.995Z,71.47
2017-05-08T11:42:50.645Z,71.47
2017-05-08T11:43:51.310Z,72.05
2017-05-08T11:44:51.933Z,72.05
2017-05-08T11:45:52.554Z,71.89
2017-05-08T11:46:53.167Z,71.03
2017-05-08T11:47:53.783Z,70.47
2017-05-08T11:48:54.401Z,71.13
2017-05-08T11:49:55.019Z,71.13
2017-05-08T11:50:55.638Z,70.84
2017-05-08T11:51:56.254Z,69.51
2017-05-08T11:52:56.906Z,69.60
2017-05-08T11:53:57.557Z,69.79
2017-05-08T11:54:58.175Z,69.51
2017-05-08T11:55:58.797Z,68.94
2017-05-08T11:56:59.409Z,68.65
2017-05-08T11:58:00.029Z,68.27
2017-05-08T11:59:00.644Z,68.84
2017-05-08T12:00:01.263Z,68.27
2017-05-08T12:01:01.879Z,68.75
2017-05-08T12:02:02.496Z,69.51
2017-05-08T12:03:03.151Z,69.83
2017-05-08T12:04:03.768Z,69.54
2017-05-08T12:05:04.384Z,68.50
2017-05-08T12:06:05.041Z,67.74
2017-05-08T12:07:05.663Z,67.74
2017-05-08T12:08:06.318Z,68.02
2017-05-08T12:09:06.983Z,66.85
2017-05-08T12:10:07.602Z,66.94
2017-05-08T12:11:08.222Z,67.13
2017-05-08T12:12:08.841Z,67.13
2017-05-08T12:13:09.453Z,67.41
2017-05-08T12:14:10.102Z,67.41
2017-05-08T12:15:10.751Z,66.56
2017-05-08T12:16:11.368Z,66.72
2017-05-08T12:17:11.987Z,68.05
2017-05-08T12:18:12.605Z,68.65
2017-05-08T12:19:13.224Z,68.56
2017-05-08T12:20:13.839Z,67.32
2017-05-08T12:21:14.458Z,67.22
2017-05-08T12:22:15.079Z,66.31
2017-05-08T12:23:15.696Z,65.70
2017-05-08T12:24:16.614Z,65.61
2017-05-08T12:25:17.238Z,65.70
2017-05-08T12:26:17.888Z,66.56
2017-05-08T12:27:18.507Z,66.11
2017-05-08T12:28:19.127Z,64.97
2017-05-08T12:29:20.049Z,64.65
2017-05-08T12:30:20.670Z,65.03
2017-05-08T12:31:21.287Z,65.26
2017-05-08T12:32:21.910Z,64.87
2017-05-08T12:33:22.527Z,65.83
2017-05-08T12:34:23.143Z,65.83
2017-05-08T12:35:23.762Z,64.87
2017-05-08T12:36:24.382Z,64.59
2017-05-08T12:37:25.000Z,63.73
2017-05-08T12:38:25.617Z,63.64
2017-05-08T12:39:26.485Z,64.56
2017-05-08T12:40:27.109Z,65.45
2017-05-08T12:41:27.724Z,64.69
2017-05-08T12:42:28.341Z,64.78
2017-05-08T12:43:28.959Z,63.80
2017-05-08T12:44:29.877Z,63.70
2017-05-08T12:45:30.502Z,63.70
2017-05-08T12:46:31.116Z,63.60
2017-05-08T12:47:31.734Z,63.89
2017-05-08T12:48:32.358Z,64.84
2017-05-08T12:49:33.272Z,64.65
2017-05-08T12:50:33.891Z,64.94
2017-05-08T12:51:34.517Z,64.84
2017-05-08T12:52:35.129Z,64.94
2017-05-08T12:53:35.746Z,64.31
2017-05-08T12:54:36.417Z,64.02
2017-05-08T12:55:37.031Z,62.68
2017-05-08T12:56:37.653Z,62.30
2017-05-08T12:57:38.269Z,62.30
2017-05-08T12:58:38.889Z,62.97
2017-05-08T12:59:39.541Z,60.88
2017-05-08T13:00:40.161Z,59.45